Decoded Metar for KEDW (EDWARDS AFB in CA, USA) (IATA:EDW) | Meteo·Mobile Aviation Weather
aviador You're here:

KEDW Decoded Metar

EDWARDS AFB in CA, USA
Report Time2019-06-18 14:58:00
UTC Time2019-06-18 15:55:13
Flight Rules vfr VFR
Wind250° at 04 kt
W.Decomp.*RWY 24: 4.0 kt HW 0.3 kt LCW
RWY 22: 3.9 kt HW 1.0 kt RCW
Visibility9999 m
Phenomena:N/A
Clouds:Few 250 Hf
Expected CloudBase > 4,800 ft AGL from Temp-Dew spread
CeilingNone
Temp23°C (ISA +13)
Dew Point11°C (47% RH)
AAT21.9°C
QNH1014 hPa
Density Alt3,907 ft
Elevation2,303 ft
Report Wrong Elevation
Raw Report
KEDW 181458Z 25004KT 50SM FEW250 23/11 A2993 RMK AO2A SLP113
T02330110 52016=

Extra information for KEDW:More info

Metar Taf Metar & Taf Last 4 Metars F.Rules Stats Wind Profile Meteogram Temp Stats Airport Information Weather charts Add Link Nearby VenuesMetar ALERT Operation Metar Decoded Social comments

AIRNAV info for KEDW